createdAt,value
2022-09-07T00:02:24.449Z,3.75
2022-09-07T00:05:26.726Z,3.85
2022-09-07T00:08:29.063Z,3.53
2022-09-07T00:11:31.058Z,3.50
2022-09-07T00:14:33.948Z,3.42
2022-09-07T00:17:36.292Z,3.55
2022-09-07T00:20:38.132Z,4.15
2022-09-07T00:23:40.776Z,3.75
2022-09-07T00:26:42.618Z,3.53
2022-09-07T00:29:44.719Z,3.88
2022-09-07T00:32:46.612Z,3.97
2022-09-07T00:35:48.559Z,3.55
2022-09-07T00:38:50.757Z,3.92
2022-09-07T00:41:52.804Z,3.88
2022-09-07T00:45:03.580Z,4.18
2022-09-07T00:48:13.667Z,3.83
2022-09-07T00:51:24.754Z,3.78
2022-09-07T00:54:34.318Z,4.32
2022-09-07T00:57:37.776Z,4.35
2022-09-07T01:00:46.342Z,3.95
2022-09-07T01:03:51.668Z,5.00
2022-09-07T01:06:55.172Z,3.83
2022-09-07T01:09:57.469Z,3.70
2022-09-07T01:13:00.361Z,4.32
2022-09-07T01:16:39.094Z,3.50
2022-09-07T01:20:18.595Z,3.72
2022-09-07T01:23:52.766Z,4.25
2022-09-07T01:27:06.618Z,3.85
2022-09-07T01:30:19.764Z,4.20
2022-09-07T01:33:36.830Z,4.15
2022-09-07T01:37:03.255Z,4.53
2022-09-07T01:40:23.002Z,3.90
2022-09-07T01:43:52.692Z,4.13
2022-09-07T01:47:18.804Z,3.88
2022-09-07T01:50:42.828Z,3.60
2022-09-07T01:53:51.752Z,3.65
2022-09-07T01:56:58.534Z,4.75
2022-09-07T02:00:13.179Z,4.00
2022-09-07T02:03:25.641Z,3.83
2022-09-07T02:06:51.869Z,3.85
2022-09-07T02:10:17.539Z,4.43
2022-09-07T02:13:46.333Z,4.03
2022-09-07T02:16:56.409Z,4.10
2022-09-07T02:20:22.200Z,3.95
2022-09-07T02:23:44.607Z,3.80
2022-09-07T02:26:49.726Z,3.90
2022-09-07T02:29:52.184Z,4.07
2022-09-07T02:32:56.199Z,4.03
2022-09-07T02:35:58.542Z,4.20
2022-09-07T02:39:00.337Z,3.85
2022-09-07T02:42:02.407Z,3.80
2022-09-07T02:45:07.988Z,4.10
2022-09-07T02:48:41.631Z,4.38
2022-09-07T02:52:20.013Z,3.78
2022-09-07T02:56:00.372Z,4.30
2022-09-07T02:59:23.909Z,3.60
2022-09-07T03:02:39.901Z,4.13
2022-09-07T03:05:48.990Z,3.80
2022-09-07T03:08:55.421Z,3.38
2022-09-07T03:11:57.728Z,4.22
2022-09-07T03:14:59.527Z,3.75
2022-09-07T03:18:01.334Z,4.32
2022-09-07T03:21:03.211Z,4.20
2022-09-07T03:24:05.724Z,4.35
2022-09-07T03:27:07.595Z,4.63
2022-09-07T03:30:11.165Z,4.05
2022-09-07T03:33:15.897Z,4.45
2022-09-07T03:36:17.838Z,4.10
2022-09-07T03:39:22.677Z,3.90
2022-09-07T03:42:24.603Z,4.15
2022-09-07T03:45:26.459Z,4.63
2022-09-07T03:48:33.262Z,4.30
2022-09-07T03:51:35.110Z,4.15
2022-09-07T03:54:39.617Z,4.85
2022-09-07T03:57:42.889Z,4.75
2022-09-07T04:00:44.619Z,4.40
2022-09-07T04:03:46.670Z,4.20
2022-09-07T04:06:48.628Z,4.25
2022-09-07T04:09:51.466Z,4.50
2022-09-07T04:12:53.285Z,4.40
2022-09-07T04:15:55.691Z,4.78
2022-09-07T04:18:59.276Z,3.67
2022-09-07T04:22:01.285Z,4.53
2022-09-07T04:25:03.244Z,4.55
2022-09-07T04:28:05.223Z,4.20
2022-09-07T04:31:07.038Z,4.47
2022-09-07T04:34:10.307Z,4.65
2022-09-07T04:37:12.601Z,4.75
2022-09-07T04:40:14.456Z,4.72
2022-09-07T04:43:16.294Z,3.92
2022-09-07T04:46:21.900Z,4.45
2022-09-07T04:49:23.841Z,3.63
2022-09-07T04:52:25.652Z,4.28
2022-09-07T04:55:27.586Z,4.20
2022-09-07T04:58:30.280Z,4.40
2022-09-07T05:01:32.404Z,4.75
2022-09-07T05:04:37.427Z,4.90
2022-09-07T05:07:39.268Z,4.72
2022-09-07T05:10:51.241Z,4.55
2022-09-07T05:13:55.336Z,5.03
2022-09-07T05:16:57.375Z,5.05
2022-09-07T05:19:59.387Z,5.82
2022-09-07T05:23:01.176Z,5.40
2022-09-07T05:26:04.071Z,6.18
2022-09-07T05:32:29.399Z,7.43
2022-09-07T05:35:31.762Z,8.48
2022-09-07T05:38:37.035Z,8.60
2022-09-07T05:41:39.027Z,8.18
2022-09-07T05:47:49.303Z,8.00
2022-09-07T05:50:52.747Z,8.50
2022-09-07T05:53:56.364Z,8.75
2022-09-07T05:56:58.451Z,7.78
2022-09-07T06:00:00.248Z,8.43
2022-09-07T06:03:02.209Z,8.15
2022-09-07T06:06:08.941Z,8.13
2022-09-07T06:09:12.697Z,8.25
2022-09-07T06:12:14.428Z,8.95
2022-09-07T06:15:16.375Z,8.43
2022-09-07T06:18:18.852Z,8.02
2022-09-07T06:21:23.085Z,8.50
2022-09-07T06:24:24.869Z,9.68
2022-09-07T06:27:26.826Z,9.05
2022-09-07T06:30:29.552Z,8.68
2022-09-07T06:33:31.367Z,8.52
2022-09-07T06:36:33.964Z,7.10
2022-09-07T06:39:36.493Z,7.57
2022-09-07T06:42:39.215Z,8.93
2022-09-07T06:45:41.110Z,7.72
2022-09-07T06:48:44.476Z,7.25
2022-09-07T06:51:46.631Z,7.93
2022-09-07T06:55:03.894Z,6.88
2022-09-07T06:58:05.813Z,7.18
2022-09-07T07:01:16.327Z,7.30
2022-09-07T07:04:18.332Z,7.38
2022-09-07T07:07:20.184Z,7.78
2022-09-07T07:10:24.808Z,7.70
2022-09-07T07:13:27.476Z,7.32
2022-09-07T07:16:29.608Z,7.28
2022-09-07T07:19:31.513Z,7.13
2022-09-07T07:22:48.684Z,8.05
2022-09-07T07:25:50.572Z,7.70
2022-09-07T07:29:03.557Z,7.53
2022-09-07T07:32:06.244Z,7.10
2022-09-07T07:35:08.968Z,7.85
2022-09-07T07:48:17.306Z,7.90
2022-09-07T07:51:20.092Z,7.45
2022-09-07T07:54:22.141Z,7.90
2022-09-07T07:57:24.136Z,8.02
2022-09-07T08:00:37.748Z,7.82
2022-09-07T08:03:47.949Z,7.70
2022-09-07T08:06:49.752Z,7.70
2022-09-07T08:09:51.828Z,8.10
2022-09-07T08:12:53.623Z,7.60
2022-09-07T08:15:59.441Z,7.20
2022-09-07T08:19:01.979Z,7.32
2022-09-07T08:22:04.025Z,7.32
2022-09-07T08:25:09.056Z,7.35
2022-09-07T08:28:10.822Z,7.50
2022-09-07T08:31:15.013Z,7.63
2022-09-07T08:34:17.052Z,7.28
2022-09-07T08:37:18.848Z,7.13
2022-09-07T08:40:20.865Z,6.93
2022-09-07T08:44:00.367Z,6.90
2022-09-07T08:47:12.638Z,6.00
2022-09-07T08:50:15.116Z,6.78
2022-09-07T08:53:19.858Z,6.50
2022-09-07T08:56:33.659Z,6.25
2022-09-07T08:59:41.604Z,6.28
2022-09-07T09:02:45.038Z,5.95
2022-09-07T09:06:01.191Z,6.40
2022-09-07T09:09:30.824Z,5.87
2022-09-07T09:12:41.284Z,5.95
2022-09-07T09:15:53.242Z,5.72
2022-09-07T09:19:15.589Z,5.75
2022-09-07T09:22:28.348Z,4.82
2022-09-07T09:25:33.894Z,5.07
2022-09-07T09:28:35.922Z,5.63
2022-09-07T09:31:37.935Z,5.55
2022-09-07T09:34:39.893Z,4.90
2022-09-07T09:37:43.061Z,4.97
2022-09-07T09:40:52.793Z,5.20
2022-09-07T09:43:56.255Z,4.45
2022-09-07T09:54:18.563Z,3.35
2022-09-07T09:59:04.733Z,4.05
2022-09-07T10:01:26.385Z,4.50
2022-09-07T10:04:35.179Z,4.50
2022-09-07T10:07:37.037Z,4.32
2022-09-07T10:10:54.149Z,4.35
2022-09-07T10:13:57.892Z,4.68
2022-09-07T10:17:02.121Z,3.80
2022-09-07T10:20:13.073Z,4.65
2022-09-07T10:23:23.858Z,4.38
2022-09-07T10:26:34.993Z,3.92
2022-09-07T10:29:37.288Z,3.70
2022-09-07T10:32:51.020Z,3.80
2022-09-07T10:36:08.037Z,4.03
2022-09-07T10:39:17.586Z,3.75
2022-09-07T10:42:29.074Z,3.80
2022-09-07T10:45:59.259Z,3.70
2022-09-07T10:49:27.426Z,3.90
2022-09-07T10:52:48.833Z,3.75
2022-09-07T10:56:31.027Z,3.67
2022-09-07T11:03:26.950Z,3.50
2022-09-07T11:06:55.199Z,3.70
2022-09-07T11:10:13.149Z,3.10
2022-09-07T11:13:22.224Z,3.00
2022-09-07T11:20:22.092Z,3.15
2022-09-07T11:23:29.684Z,2.97
2022-09-07T11:26:56.223Z,3.40
2022-09-07T11:30:23.666Z,3.38
2022-09-07T11:37:21.113Z,3.30
2022-09-07T11:40:29.912Z,3.17
2022-09-07T11:43:38.211Z,3.20
2022-09-07T11:46:55.842Z,2.97
2022-09-07T11:49:59.529Z,3.25
2022-09-07T11:53:09.543Z,3.30
2022-09-07T11:56:16.907Z,2.80
2022-09-07T11:59:37.127Z,2.72
2022-09-07T12:02:59.918Z,2.70
2022-09-07T12:06:08.244Z,2.90
2022-09-07T12:09:46.604Z,3.08
2022-09-07T12:12:58.977Z,2.70
2022-09-07T12:16:23.233Z,2.95
2022-09-07T12:19:27.057Z,2.97
2022-09-07T12:22:28.831Z,2.85
2022-09-07T12:25:32.261Z,2.58
2022-09-07T12:28:34.195Z,2.97
2022-09-07T12:31:57.535Z,2.90
2022-09-07T12:35:00.972Z,2.85
2022-09-07T12:38:13.854Z,3.13
2022-09-07T12:41:40.709Z,2.63
2022-09-07T12:44:42.541Z,2.58
2022-09-07T12:47:56.075Z,2.85
2022-09-07T12:55:26.484Z,2.42
2022-09-07T12:58:30.809Z,2.72
2022-09-07T13:01:51.806Z,2.65
2022-09-07T13:05:06.362Z,2.95
2022-09-07T13:08:09.372Z,2.92
2022-09-07T13:11:31.712Z,3.08
2022-09-07T13:14:38.522Z,2.92
2022-09-07T13:17:43.391Z,2.70
2022-09-07T13:20:46.675Z,2.90
2022-09-07T13:27:44.159Z,2.60
2022-09-07T13:31:30.050Z,2.45
2022-09-07T13:34:34.808Z,2.95
2022-09-07T13:37:59.083Z,2.73
2022-09-07T13:41:13.412Z,2.42
2022-09-07T13:44:25.954Z,2.40
2022-09-07T13:47:37.907Z,2.45
2022-09-07T13:51:10.433Z,2.55
2022-09-07T13:54:45.680Z,2.35
2022-09-07T13:58:04.687Z,2.58
2022-09-07T14:01:19.011Z,2.88
2022-09-07T14:04:28.863Z,2.50
2022-09-07T14:07:31.724Z,2.60
2022-09-07T14:10:33.745Z,2.58
2022-09-07T14:13:35.497Z,2.35
2022-09-07T14:16:38.088Z,2.60
2022-09-07T14:19:45.100Z,2.55
2022-09-07T14:22:51.983Z,2.95
2022-09-07T14:26:17.461Z,2.47
2022-09-07T14:29:24.531Z,2.28
2022-09-07T14:32:27.315Z,2.55
2022-09-07T14:35:33.691Z,2.58
2022-09-07T14:42:03.870Z,2.50
2022-09-07T14:45:31.460Z,2.65
2022-09-07T14:48:35.370Z,2.20
2022-09-07T14:51:42.805Z,2.30
2022-09-07T14:54:51.872Z,2.20
2022-09-07T14:58:15.034Z,2.60
2022-09-07T15:07:50.363Z,2.75
2022-09-07T15:11:35.148Z,2.78
2022-09-07T15:14:39.954Z,2.90
2022-09-07T15:17:43.264Z,3.00
2022-09-07T15:20:45.657Z,2.90
2022-09-07T15:23:55.512Z,2.95
2022-09-07T15:27:04.518Z,3.50
2022-09-07T15:30:06.854Z,3.45
2022-09-07T15:33:09.033Z,2.92
2022-09-07T15:36:13.278Z,3.10
2022-09-07T15:39:17.161Z,3.13
2022-09-07T15:45:41.390Z,3.17
2022-09-07T15:48:54.775Z,2.88
2022-09-07T15:52:05.054Z,3.08
2022-09-07T15:55:08.764Z,3.10
2022-09-07T15:58:13.714Z,3.08
2022-09-07T16:04:38.778Z,3.40
2022-09-07T16:11:35.302Z,3.30
2022-09-07T16:14:37.202Z,3.03
2022-09-07T16:17:47.201Z,4.05
2022-09-07T16:20:52.721Z,4.07
2022-09-07T16:23:55.077Z,4.35
2022-09-07T16:26:56.924Z,4.45
2022-09-07T16:29:59.533Z,4.38
2022-09-07T16:33:01.432Z,4.80
2022-09-07T16:36:15.988Z,4.50
2022-09-07T16:39:18.257Z,4.72
2022-09-07T16:42:21.690Z,4.93
2022-09-07T16:48:52.325Z,4.70
2022-09-07T16:51:54.460Z,4.97
2022-09-07T16:54:56.223Z,4.43
2022-09-07T17:01:22.486Z,4.93
2022-09-07T17:04:24.522Z,5.45
2022-09-07T17:07:26.250Z,4.63
2022-09-07T17:10:28.773Z,4.57
2022-09-07T17:13:32.171Z,4.53
2022-09-07T17:16:37.543Z,5.07
2022-09-07T17:19:39.520Z,4.30
2022-09-07T17:22:41.460Z,4.68
2022-09-07T17:25:43.187Z,4.75
2022-09-07T17:28:48.815Z,5.13
2022-09-07T17:35:12.049Z,4.93
2022-09-07T17:41:35.703Z,4.90
2022-09-07T17:44:38.475Z,4.47
2022-09-07T17:47:40.342Z,4.47
2022-09-07T17:50:42.578Z,4.38
2022-09-07T17:53:45.654Z,3.92
2022-09-07T17:56:47.705Z,4.72
2022-09-07T18:03:12.863Z,4.45
2022-09-07T18:06:15.069Z,4.40
2022-09-07T18:09:17.404Z,4.43
2022-09-07T18:12:19.124Z,4.50
2022-09-07T18:15:22.214Z,4.45
2022-09-07T18:18:24.022Z,4.40
2022-09-07T18:21:28.354Z,4.47
2022-09-07T18:24:30.299Z,4.55
2022-09-07T18:27:32.101Z,4.35
2022-09-07T18:30:42.243Z,4.90
2022-09-07T18:33:43.946Z,4.40
2022-09-07T18:36:45.734Z,4.43
2022-09-07T18:39:48.807Z,4.05
2022-09-07T18:42:52.299Z,4.45
2022-09-07T18:46:01.247Z,4.47
2022-09-07T18:49:03.078Z,4.78
2022-09-07T18:55:27.502Z,4.97
2022-09-07T18:58:29.733Z,4.90
2022-09-07T19:01:32.137Z,5.10
2022-09-07T19:07:55.944Z,4.70
2022-09-07T19:11:04.703Z,3.67
2022-09-07T19:14:06.681Z,4.00
2022-09-07T19:17:08.499Z,3.67
2022-09-07T19:20:10.573Z,3.25
2022-09-07T19:23:12.284Z,4.72
2022-09-07T19:26:14.077Z,4.00
2022-09-07T19:29:18.048Z,3.97
2022-09-07T19:32:20.392Z,3.63
2022-09-07T19:35:22.179Z,3.65
2022-09-07T19:38:24.045Z,3.85
2022-09-07T19:41:25.960Z,3.80
2022-09-07T19:44:27.992Z,3.90
2022-09-07T19:47:29.747Z,3.58
2022-09-07T19:50:32.407Z,3.75
2022-09-07T19:53:35.845Z,3.63
2022-09-07T19:56:39.088Z,4.03
2022-09-07T19:59:40.849Z,3.97
2022-09-07T20:02:42.641Z,3.70
2022-09-07T20:05:44.412Z,4.00
2022-09-07T20:08:46.827Z,3.60
2022-09-07T20:11:48.657Z,4.25
2022-09-07T20:14:50.481Z,4.28
2022-09-07T20:17:54.055Z,4.38
2022-09-07T20:20:57.269Z,3.97
2022-09-07T20:23:59.153Z,4.75
2022-09-07T20:27:02.788Z,4.32
2022-09-07T20:30:05.328Z,4.53
2022-09-07T20:33:07.232Z,4.90
2022-09-07T20:36:11.338Z,4.60
2022-09-07T20:39:16.570Z,4.05
2022-09-07T20:42:19.006Z,4.57
2022-09-07T20:45:20.986Z,4.60
2022-09-07T20:48:22.839Z,4.32
2022-09-07T20:51:24.945Z,5.00
2022-09-07T20:54:26.737Z,4.88
2022-09-07T20:57:28.731Z,4.13
2022-09-07T21:00:31.044Z,4.30
2022-09-07T21:03:32.920Z,4.45
2022-09-07T21:06:34.926Z,4.18
2022-09-07T21:09:36.635Z,4.20
2022-09-07T21:12:38.295Z,3.90
2022-09-07T21:15:44.403Z,4.30
2022-09-07T21:18:46.223Z,4.28
2022-09-07T21:21:47.994Z,4.45
2022-09-07T21:24:49.659Z,4.85
2022-09-07T21:27:51.663Z,4.13
2022-09-07T21:31:01.310Z,4.07
2022-09-07T21:34:03.148Z,4.38
2022-09-07T21:37:04.867Z,4.90
2022-09-07T21:40:07.498Z,4.38
2022-09-07T21:43:09.287Z,4.38
2022-09-07T21:46:17.290Z,4.70
2022-09-07T21:49:19.034Z,4.70
2022-09-07T21:52:20.737Z,5.35
2022-09-07T21:55:22.474Z,4.55
2022-09-07T21:58:25.127Z,4.50
2022-09-07T22:01:28.971Z,4.90
2022-09-07T22:04:31.176Z,4.72
2022-09-07T22:07:33.117Z,4.72
2022-09-07T22:10:35.130Z,4.35
2022-09-07T22:13:37.775Z,4.30
2022-09-07T22:16:39.824Z,5.20
2022-09-07T22:19:41.625Z,5.05
2022-09-07T22:22:43.714Z,5.07
2022-09-07T22:25:53.233Z,4.35
2022-09-07T22:28:55.723Z,4.00
2022-09-07T22:31:57.521Z,4.70
2022-09-07T22:34:59.744Z,4.88
2022-09-07T22:38:01.462Z,4.32
2022-09-07T22:41:11.598Z,5.15
2022-09-07T22:44:16.075Z,4.55
2022-09-07T22:47:17.799Z,4.60
2022-09-07T22:50:20.377Z,4.07
2022-09-07T22:53:22.836Z,4.05
2022-09-07T22:56:31.327Z,4.47
2022-09-07T22:59:33.338Z,4.30
2022-09-07T23:02:35.166Z,4.68
2022-09-07T23:05:37.812Z,4.47
2022-09-07T23:08:39.927Z,4.97
2022-09-07T23:11:42.312Z,4.90
2022-09-07T23:14:43.991Z,4.32
2022-09-07T23:17:45.798Z,4.70
2022-09-07T23:20:47.663Z,4.88
2022-09-07T23:23:54.648Z,5.03
2022-09-07T23:26:56.429Z,4.47
2022-09-07T23:29:58.189Z,4.55
2022-09-07T23:33:00.143Z,4.70
2022-09-07T23:36:04.446Z,4.80
2022-09-07T23:39:09.135Z,4.50
2022-09-07T23:42:11.071Z,5.03
2022-09-07T23:45:13.473Z,4.43
2022-09-07T23:48:15.496Z,4.40
2022-09-07T23:51:23.050Z,3.85
2022-09-07T23:54:26.249Z,4.65
2022-09-07T23:57:28.111Z,4.50
